Time;durP1;ratioP1;P1;durP2;ratioP2;P2;SDS_P1;SDS_P2;PMS_P1;PMS_P2;Temp;Humidity;BMP_temperature;BMP_pressure;BME280_temperature;BME280_humidity;BME280_pressure;Samples;Min_cycle;Max_cycle;Signal;HPM_P1;HPM_P2
2022/01/10 00:04:04;;;;;;;145.40;66.50;;;;;;;-0.95;61.43;98304.02;221422;1276;139313;-60
2022/01/10 00:09:07;;;;;;;136.80;65.10;;;;;;;-0.98;61.66;98309.29;221280;1276;139742;-61
2022/01/10 00:14:10;;;;;;;146.50;63.70;;;;;;;-1.02;61.75;98322.99;221233;1275;140752;-58
2022/01/10 00:19:13;;;;;;;142.80;63.70;;;;;;;-1.07;61.72;98335.48;221459;1274;139421;-59
2022/01/10 00:24:16;;;;;;;135.40;64.50;;;;;;;-1.14;61.73;98346.10;221288;1276;139044;-60
2022/01/10 00:29:19;;;;;;;143.00;67.80;;;;;;;-1.17;61.93;98355.08;221447;1276;139058;-58
2022/01/10 00:34:22;;;;;;;138.00;63.70;;;;;;;-1.19;61.91;98359.10;221119;1276;140740;-60
2022/01/10 00:39:26;;;;;;;132.50;62.80;;;;;;;-1.26;61.83;98362.42;221329;1275;139397;-60
2022/01/10 00:44:31;;;;;;;144.70;67.40;;;;;;;-1.30;62.13;98360.25;221385;1275;139956;-62
2022/01/10 00:49:34;;;;;;;;;;;;;;;-1.33;62.05;98367.46;221444;1276;139407;-58
2022/01/10 00:54:38;;;;;;;146.20;64.10;;;;;;;-1.39;62.03;98372.48;221418;1275;125402;-58
2022/01/10 00:59:42;;;;;;;143.20;64.20;;;;;;;-1.44;62.10;98376.42;221271;1275;139185;-59
2022/01/10 01:04:45;;;;;;;138.20;62.80;;;;;;;-1.45;62.18;98382.91;221322;1276;139536;-59
2022/01/10 01:09:59;;;;;;;140.50;63.50;;;;;;;-1.49;62.23;98381.95;221415;1276;141035;-58
2022/01/10 01:15:18;;;;;;;142.30;64.30;;;;;;;-1.48;62.38;98385.59;221302;1275;139358;-58
2022/01/10 01:20:43;;;;;;;151.40;68.20;;;;;;;-1.47;62.61;98388.88;221130;1275;139870;-59
2022/01/10 01:25:46;;;;;;;143.60;66.00;;;;;;;-1.36;62.79;98389.31;221455;1275;140330;-58
2022/01/10 01:30:49;;;;;;;151.60;66.80;;;;;;;-1.20;63.05;98398.64;221430;1277;140458;-59
2022/01/10 01:35:53;;;;;;;155.30;66.00;;;;;;;-1.03;62.99;98404.30;221135;1275;140133;-59
2022/01/10 01:41:11;;;;;;;151.00;67.30;;;;;;;-0.95;62.70;98408.12;221100;1275;139303;-58
2022/01/10 01:46:15;;;;;;;146.60;68.10;;;;;;;-0.96;62.55;98410.21;221488;1274;139261;-60
2022/01/10 01:51:20;;;;;;;149.70;67.10;;;;;;;-0.97;62.52;98414.59;221403;1275;138864;-58
2022/01/10 01:56:23;;;;;;;138.50;64.50;;;;;;;-1.03;62.34;98414.76;221269;1275;138598;-58
2022/01/10 02:01:28;;;;;;;141.10;64.10;;;;;;;-1.08;62.38;98421.30;221162;1276;138879;-59
2022/01/10 02:06:31;;;;;;;149.40;65.20;;;;;;;-1.13;62.31;98418.14;221252;1276;139723;-58
2022/01/10 02:11:34;;;;;;;131.10;62.90;;;;;;;-1.18;62.47;98418.27;221317;1276;140224;-56
2022/01/10 02:16:42;;;;;;;134.00;63.80;;;;;;;-1.21;62.43;98421.45;221292;1275;139437;-61
2022/01/10 02:22:18;;;;;;;133.70;61.50;;;;;;;-1.24;62.57;98425.90;221108;1275;139078;-60
2022/01/10 02:27:34;;;;;;;134.40;62.80;;;;;;;-1.28;62.52;98429.46;221209;1276;139519;-58
2022/01/10 02:32:37;;;;;;;136.40;63.30;;;;;;;-1.35;62.49;98437.30;221404;1276;141521;-58
2022/01/10 02:37:40;;;;;;;134.80;60.40;;;;;;;-1.40;62.60;98447.15;221311;1275;140434;-59
2022/01/10 02:42:43;;;;;;;124.50;58.00;;;;;;;-1.43;62.61;98447.40;221128;1275;139591;-58
2022/01/10 02:47:48;;;;;;;131.20;60.20;;;;;;;-1.42;62.75;98455.02;221268;1276;139642;-57
2022/01/10 02:52:51;;;;;;;132.40;59.80;;;;;;;-1.42;62.74;98461.11;221438;1275;139602;-58
2022/01/10 02:57:55;;;;;;;113.40;55.70;;;;;;;-1.41;62.88;98458.48;221153;1275;139426;-55
2022/01/10 03:02:59;;;;;;;117.20;54.00;;;;;;;-1.41;62.78;98460.05;221153;1275;140597;-60
2022/01/10 03:08:03;;;;;;;106.60;49.50;;;;;;;-1.39;62.88;98468.17;220988;1275;139648;-56
2022/01/10 03:13:07;;;;;;;101.90;49.90;;;;;;;-1.34;63.05;98476.75;221257;1275;139581;-58
2022/01/10 03:18:11;;;;;;;110.90;50.00;;;;;;;-1.32;62.95;98482.27;221199;1275;142050;-57
2022/01/10 03:23:15;;;;;;;112.80;51.30;;;;;;;-1.31;62.84;98491.31;221315;1276;140099;-58
2022/01/10 03:28:18;;;;;;;112.80;53.30;;;;;;;-1.31;62.79;98493.56;221092;1275;138842;-58
2022/01/10 03:33:21;;;;;;;111.80;54.10;;;;;;;-1.27;62.94;98501.66;221192;1275;139227;-58
2022/01/10 03:38:24;;;;;;;119.20;54.80;;;;;;;-1.26;62.73;98509.65;221310;1276;139372;-59
2022/01/10 03:43:27;;;;;;;109.60;54.50;;;;;;;-1.30;62.65;98511.46;221463;1275;139511;-59
2022/01/10 03:48:31;;;;;;;114.70;55.70;;;;;;;-1.32;62.68;98516.73;221066;1275;139437;-58
2022/01/10 03:53:34;;;;;;;113.60;54.50;;;;;;;-1.32;62.83;98527.86;221006;1275;139078;-59
2022/01/10 03:58:38;;;;;;;126.60;58.50;;;;;;;-1.31;62.80;98542.11;221256;1276;139681;-62
2022/01/10 04:03:41;;;;;;;128.50;58.80;;;;;;;-1.32;62.67;98552.76;221242;1276;139476;-60
2022/01/10 04:08:47;;;;;;;579.10;379.60;;;;;;;-1.35;62.84;98555.77;221214;1274;200808;-61
2022/01/10 04:13:51;;;;;;;140.90;61.80;;;;;;;-1.19;63.34;98560.63;221327;1275;138937;-62
2022/01/10 04:18:54;;;;;;;134.20;57.20;;;;;;;-1.16;62.74;98568.59;221103;1275;139844;-60
2022/01/10 04:23:58;;;;;;;117.80;56.70;;;;;;;-1.20;62.46;98576.33;221339;1276;139739;-60
2022/01/10 04:29:02;;;;;;;122.70;56.30;;;;;;;-1.26;62.51;98582.04;221332;1275;139561;-61
2022/01/10 04:34:05;;;;;;;126.60;59.20;;;;;;;-1.28;62.50;98586.23;220942;1276;141173;-60
2022/01/10 04:39:08;;;;;;;121.70;56.30;;;;;;;-1.28;62.43;98592.67;221272;1275;139615;-62
2022/01/10 04:44:12;;;;;;;131.40;59.00;;;;;;;-1.30;62.42;98605.77;221304;1276;139418;-61
2022/01/10 04:49:22;;;;;;;125.10;56.40;;;;;;;-1.35;62.35;98615.61;221354;1275;139169;-61
2022/01/10 04:54:25;;;;;;;127.90;57.90;;;;;;;-1.42;62.36;98618.55;221280;1275;138754;-60
2022/01/10 04:59:28;;;;;;;124.20;57.30;;;;;;;-1.46;62.47;98629.60;221257;1277;139259;-61
2022/01/10 05:04:32;;;;;;;119.90;56.30;;;;;;;-1.47;62.51;98639.70;221135;1276;138979;-60
2022/01/10 05:09:35;;;;;;;118.30;55.00;;;;;;;-1.43;62.74;98645.02;221342;1275;139951;-58
2022/01/10 05:14:42;;;;;;;114.70;53.50;;;;;;;-1.42;62.57;98652.48;221149;1276;139852;-60
2022/01/10 05:19:45;;;;;;;113.80;53.60;;;;;;;-1.41;62.50;98660.10;221352;1276;139445;-58
2022/01/10 05:24:49;;;;;;;111.50;53.60;;;;;;;-1.38;62.58;98663.02;221279;1275;139549;-57
2022/01/10 05:29:52;;;;;;;113.90;55.90;;;;;;;-1.40;62.49;98671.23;221205;1275;139836;-58
2022/01/10 05:34:56;;;;;;;115.90;53.60;;;;;;;-1.45;62.42;98680.90;221187;1275;140107;-58
2022/01/10 05:39:59;;;;;;;105.80;51.40;;;;;;;-1.45;62.42;98687.67;221380;1275;140998;-58
2022/01/10 05:45:02;;;;;;;109.10;52.00;;;;;;;-1.49;62.43;98697.50;221367;1277;140232;-58
2022/01/10 05:50:07;;;;;;;105.80;50.90;;;;;;;-1.50;62.45;98708.14;221237;1275;142697;-57
2022/01/10 05:55:14;;;;;;;107.20;51.50;;;;;;;-1.54;62.29;98719.34;221158;1275;140329;-56
2022/01/10 06:00:21;;;;;;;102.40;49.60;;;;;;;-1.64;62.28;98726.66;221186;1275;139574;-58
2022/01/10 06:05:30;;;;;;;97.80;48.30;;;;;;;-1.70;62.46;98738.41;221355;1276;138849;-56
2022/01/10 06:10:36;;;;;;;105.40;49.30;;;;;;;-1.67;62.69;98749.30;221102;1275;139131;-58
2022/01/10 06:15:51;;;;;;;108.90;50.40;;;;;;;-1.59;62.64;98769.52;221263;1275;139604;-58
2022/01/10 06:20:54;;;;;;;104.80;49.70;;;;;;;-1.54;62.62;98795.52;221058;1275;142715;-57
2022/01/10 06:25:58;;;;;;;98.00;48.50;;;;;;;-1.50;62.69;98812.84;221284;1277;139742;-57
2022/01/10 06:31:02;;;;;;;103.80;48.90;;;;;;;-1.53;62.39;98829.42;221273;1275;139966;-57
2022/01/10 06:36:11;;;;;;;100.40;48.70;;;;;;;-1.59;62.37;98841.36;221211;1277;140288;-58
2022/01/10 06:41:16;;;;;;;96.60;47.30;;;;;;;-1.66;62.23;98845.65;221124;1277;138997;-57
2022/01/10 06:46:21;;;;;;;84.60;42.60;;;;;;;-1.71;62.36;98853.02;221209;1275;139547;-58
2022/01/10 06:51:25;;;;;;;83.70;43.00;;;;;;;-1.69;62.49;98865.69;221194;1276;139240;-59
2022/01/10 06:56:29;;;;;;;82.90;41.30;;;;;;;-1.65;62.64;98884.77;221167;1275;138692;-59
2022/01/10 07:01:35;;;;;;;90.20;45.30;;;;;;;-1.60;62.61;98898.94;221034;1276;138784;-57
2022/01/10 07:06:42;;;;;;;86.50;43.70;;;;;;;-1.51;62.70;98912.72;221268;1276;139171;-58
2022/01/10 07:11:50;;;;;;;92.00;46.50;;;;;;;-1.39;62.55;98923.66;221170;1275;139971;-58
2022/01/10 07:16:54;;;;;;;92.50;47.40;;;;;;;-1.31;62.63;98933.64;221203;1275;139630;-58
2022/01/10 07:21:57;;;;;;;89.50;46.70;;;;;;;-1.26;62.67;98943.83;221120;1277;139102;-60
2022/01/10 07:27:01;;;;;;;91.20;46.70;;;;;;;-1.25;62.64;98957.21;221319;1277;139276;-58
2022/01/10 07:32:06;;;;;;;85.40;45.80;;;;;;;-1.27;62.51;98967.30;221441;1276;139307;-60
2022/01/10 07:37:09;;;;;;;86.50;43.60;;;;;;;-1.27;62.65;98975.85;221368;1275;139435;-60
2022/01/10 07:42:12;;;;;;;84.70;38.50;;;;;;;-1.26;62.65;98985.06;220942;1277;141021;-57
2022/01/10 07:47:21;;;;;;;68.70;34.70;;;;;;;-1.29;62.72;98996.08;221268;1275;138904;-57
2022/01/10 07:52:26;;;;;;;66.70;33.80;;;;;;;-1.29;62.86;99002.86;221179;1275;139148;-57
2022/01/10 07:57:29;;;;;;;64.80;34.70;;;;;;;-1.29;63.04;99008.95;221440;1275;139108;-58
2022/01/10 08:02:32;;;;;;;65.50;32.40;;;;;;;-1.30;63.20;99011.73;221329;1276;139433;-59
2022/01/10 08:07:36;;;;;;;60.20;30.00;;;;;;;-1.30;63.29;99015.91;221695;1276;138638;-60
2022/01/10 08:12:39;;;;;;;42.20;23.20;;;;;;;-1.28;63.65;99025.45;221522;1274;140681;-59
2022/01/10 08:17:42;;;;;;;45.70;22.40;;;;;;;-1.21;63.84;99035.80;221177;1274;139429;-59
2022/01/10 08:22:45;;;;;;;39.50;20.50;;;;;;;-1.14;64.07;99046.52;221531;1274;139151;-60
2022/01/10 08:27:48;;;;;;;39.70;20.70;;;;;;;-1.07;64.23;99060.85;221558;1274;140610;-59
2022/01/10 08:32:51;;;;;;;41.70;22.20;;;;;;;-0.94;64.21;99070.04;221335;1275;139056;-57
2022/01/10 08:37:54;;;;;;;37.50;20.60;;;;;;;-0.75;64.33;99077.25;221518;1274;139820;-60
2022/01/10 08:42:59;;;;;;;42.90;22.70;;;;;;;-0.56;64.45;99088.77;221382;1274;139332;-57
2022/01/10 08:48:03;;;;;;;48.40;24.20;;;;;;;-0.46;64.28;99091.77;221450;1277;140287;-57
2022/01/10 08:53:09;;;;;;;46.00;24.70;;;;;;;-0.41;64.11;99095.16;221406;1276;140644;-57
2022/01/10 08:58:12;;;;;;;46.60;26.10;;;;;;;-0.31;64.31;99103.16;221279;1274;140086;-58
2022/01/10 09:03:15;;;;;;;47.10;25.30;;;;;;;-0.22;64.08;99108.95;221319;1274;140938;-58
2022/01/10 09:08:18;;;;;;;47.50;25.20;;;;;;;-0.22;63.96;99114.70;221202;1274;140355;-60
2022/01/10 09:13:21;;;;;;;57.30;28.30;;;;;;;-0.21;63.82;99118.88;221298;1274;139010;-61
2022/01/10 09:18:24;;;;;;;47.30;25.70;;;;;;;-0.21;63.81;99120.42;221192;1276;139652;-61
2022/01/10 09:23:27;;;;;;;103.90;49.60;;;;;;;-0.21;64.02;99125.85;221407;1275;139360;-59
2022/01/10 09:28:31;;;;;;;57.90;29.70;;;;;;;-0.08;64.39;99127.88;221192;1276;140230;-59
2022/01/10 09:33:34;;;;;;;53.70;28.60;;;;;;;-0.00;64.04;99128.79;221257;1274;140012;-60
2022/01/10 09:38:37;;;;;;;56.50;29.70;;;;;;;-0.02;63.77;99124.98;221581;1274;140164;-61
2022/01/10 09:43:47;;;;;;;51.60;28.40;;;;;;;-0.06;63.77;99129.06;221552;1274;139190;-60
2022/01/10 09:48:51;;;;;;;54.20;29.30;;;;;;;-0.04;63.82;99134.80;221343;1274;139436;-59
2022/01/10 09:53:59;;;;;;;53.50;27.80;;;;;;;0.01;63.98;99150.05;220850;1277;143875;-59
2022/01/10 09:59:02;;;;;;;54.00;28.80;;;;;;;0.04;63.95;99152.95;221529;1274;139768;-60
2022/01/10 10:04:05;;;;;;;55.90;29.90;;;;;;;0.05;64.05;99152.25;221449;1274;139577;-60
2022/01/10 10:09:09;;;;;;;122.30;62.30;;;;;;;0.07;64.03;99151.16;221422;1274;140302;-60
2022/01/10 10:14:15;;;;;;;76.20;32.80;;;;;;;0.25;64.49;99148.21;221320;1274;140619;-57
2022/01/10 10:19:22;;;;;;;52.40;27.00;;;;;;;0.41;64.30;99152.98;221578;1276;139366;-61
2022/01/10 10:24:26;;;;;;;51.00;27.90;;;;;;;0.51;64.01;99156.80;221330;1274;139320;-61
2022/01/10 10:29:29;;;;;;;46.10;26.50;;;;;;;0.57;64.16;99165.58;221341;1274;140575;-56
2022/01/10 10:34:33;;;;;;;45.30;24.60;;;;;;;0.61;64.00;99174.73;221171;1274;139757;-59
2022/01/10 10:39:39;;;;;;;54.00;26.40;;;;;;;0.65;64.07;99178.67;221573;1274;139194;-61
2022/01/10 10:44:44;;;;;;;43.90;24.40;;;;;;;0.69;64.02;99180.88;220976;1274;144872;-58
2022/01/10 10:49:51;;;;;;;47.10;25.20;;;;;;;0.74;64.10;99187.41;221435;1274;140322;-60
2022/01/10 10:54:55;;;;;;;43.00;23.20;;;;;;;0.82;64.19;99191.27;221015;1274;139131;-61
2022/01/10 10:59:59;;;;;;;40.40;22.10;;;;;;;0.85;64.13;99195.40;221473;1274;139089;-61
2022/01/10 11:05:05;;;;;;;41.00;22.60;;;;;;;0.86;63.97;99203.59;221154;1275;139142;-61
2022/01/10 11:10:12;;;;;;;41.40;23.00;;;;;;;0.86;64.04;99208.13;221248;1275;139760;-61
2022/01/10 11:15:15;;;;;;;43.90;23.30;;;;;;;0.89;63.96;99215.58;221258;1274;138741;-58
2022/01/10 11:20:22;;;;;;;38.80;20.60;;;;;;;0.90;64.02;99223.95;221461;1274;138987;-60
2022/01/10 11:25:31;;;;;;;37.70;21.00;;;;;;;0.92;63.95;99230.89;221384;1274;138498;-61
2022/01/10 11:30:44;;;;;;;36.50;21.40;;;;;;;0.92;63.91;99233.68;221267;1274;140511;-60
2022/01/10 11:35:55;;;;;;;40.20;21.30;;;;;;;0.93;64.07;99238.20;221374;1274;139785;-60
2022/01/10 11:41:18;;;;;;;38.80;21.30;;;;;;;0.94;64.10;99241.83;221442;1276;139298;-59
2022/01/10 11:46:27;;;;;;;35.80;20.40;;;;;;;0.96;64.11;99250.73;221374;1274;138958;-59
2022/01/10 11:51:34;;;;;;;42.60;22.50;;;;;;;0.98;64.25;99259.41;221306;1275;139164;-60
2022/01/10 11:56:49;;;;;;;41.60;21.20;;;;;;;1.04;64.28;99261.04;221303;1275;140143;-60
2022/01/10 12:02:04;;;;;;;39.70;23.10;;;;;;;1.15;64.38;99265.00;221417;1274;139736;-61
2022/01/10 12:07:11;;;;;;;45.20;23.30;;;;;;;1.27;64.41;99269.14;221306;1274;138898;-61
2022/01/10 12:12:16;;;;;;;44.00;24.10;;;;;;;1.33;64.26;99273.03;221314;1274;139033;-61
2022/01/10 12:17:20;;;;;;;43.80;24.40;;;;;;;1.36;64.23;99272.28;221347;1274;139225;-61
2022/01/10 12:22:23;;;;;;;45.50;24.20;;;;;;;1.37;64.31;99280.64;221124;1276;138362;-58
2022/01/10 12:27:27;;;;;;;40.20;22.60;;;;;;;1.38;64.26;99283.94;221299;1276;139000;-59
2022/01/10 12:32:33;;;;;;;41.00;22.00;;;;;;;1.38;64.34;99292.66;221192;1274;138849;-60
2022/01/10 12:37:37;;;;;;;36.30;20.60;;;;;;;1.41;64.27;99295.07;221415;1274;139534;-59
2022/01/10 12:42:40;;;;;;;35.80;19.60;;;;;;;1.41;64.32;99305.02;221416;1275;138931;-62
2022/01/10 12:47:45;;;;;;;36.00;19.50;;;;;;;1.44;64.49;99316.69;221378;1274;138620;-62
2022/01/10 12:52:48;;;;;;;37.40;19.30;;;;;;;1.42;64.43;99329.30;221337;1274;139372;-61
2022/01/10 12:57:51;;;;;;;35.00;19.00;;;;;;;1.42;64.48;99342.23;221183;1274;140598;-59
2022/01/10 13:02:54;;;;;;;36.00;21.00;;;;;;;1.45;64.65;99348.30;221355;1276;138865;-59
2022/01/10 13:07:58;;;;;;;40.00;21.70;;;;;;;1.54;64.90;99365.08;221455;1274;138803;-61
2022/01/10 13:13:02;;;;;;;36.90;19.90;;;;;;;1.66;64.76;99376.91;221414;1274;139453;-61
2022/01/10 13:18:11;;;;;;;34.60;19.90;;;;;;;1.72;64.63;99381.33;221316;1274;139352;-61
2022/01/10 13:23:16;;;;;;;27.60;16.70;;;;;;;1.78;64.61;99388.89;221447;1275;140071;-60
2022/01/10 13:28:19;;;;;;;30.50;17.90;;;;;;;1.80;64.47;99394.27;221377;1275;139413;-61
2022/01/10 13:33:44;;;;;;;32.60;17.10;;;;;;;1.83;64.53;99402.77;221338;1274;160423;-61
2022/01/10 13:38:48;;;;;;;31.20;17.80;;;;;;;1.85;64.33;99410.95;221395;1274;138793;-60
2022/01/10 13:43:51;;;;;;;158.10;75.90;;;;;;;1.79;64.41;99412.67;221539;1274;138936;-59
2022/01/10 13:48:55;;;;;;;36.80;20.20;;;;;;;1.78;64.47;99418.27;221376;1276;139831;-60
2022/01/10 13:53:58;;;;;;;32.70;19.00;;;;;;;1.75;64.34;99433.20;221356;1274;138681;-57
2022/01/10 13:59:04;;;;;;;31.50;17.70;;;;;;;1.72;64.38;99446.03;221278;1274;139028;-59
2022/01/10 14:04:34;;;;;;;33.70;18.20;;;;;;;1.68;64.46;99458.17;221491;1274;139004;-59
2022/01/10 14:09:37;;;;;;;30.90;17.70;;;;;;;1.64;64.46;99472.23;221393;1276;140131;-59
2022/01/10 14:14:40;;;;;;;34.20;18.70;;;;;;;1.59;64.59;99478.10;221322;1274;139169;-58
2022/01/10 14:19:44;;;;;;;31.80;18.40;;;;;;;1.58;64.80;99490.72;221470;1274;139485;-59
2022/01/10 14:24:47;;;;;;;34.60;18.90;;;;;;;1.59;64.84;99504.68;221424;1274;139157;-59
2022/01/10 14:29:50;;;;;;;34.90;19.10;;;;;;;1.57;64.91;99508.22;221374;1274;138941;-59
2022/01/10 14:34:53;;;;;;;32.40;19.00;;;;;;;1.60;64.93;99513.41;221170;1275;139339;-60
2022/01/10 14:39:57;;;;;;;34.20;19.20;;;;;;;1.66;64.98;99521.34;221407;1274;139496;-59
2022/01/10 14:45:11;;;;;;;33.30;19.60;;;;;;;1.74;65.14;99528.02;221518;1274;139118;-60
2022/01/10 14:50:16;;;;;;;32.00;19.30;;;;;;;1.78;65.15;99537.41;221380;1275;139875;-59
2022/01/10 14:55:19;;;;;;;31.30;17.70;;;;;;;1.79;65.19;99548.04;221383;1274;139587;-59
2022/01/10 15:00:22;;;;;;;24.60;16.20;;;;;;;1.81;65.16;99550.80;221282;1274;139800;-60
2022/01/10 15:05:26;;;;;;;23.30;15.20;;;;;;;1.84;65.09;99563.52;221375;1276;138900;-60
2022/01/10 15:10:29;;;;;;;23.70;15.10;;;;;;;1.80;64.93;99574.08;221156;1274;138922;-59
2022/01/10 15:15:32;;;;;;;20.40;14.10;;;;;;;1.74;64.83;99581.20;221190;1274;138934;-59
2022/01/10 15:20:36;;;;;;;20.10;13.50;;;;;;;1.66;64.81;99594.45;220954;1274;138954;-59
2022/01/10 15:25:39;;;;;;;20.30;12.70;;;;;;;1.61;64.91;99599.26;221459;1274;139030;-59
2022/01/10 15:30:43;;;;;;;17.60;11.90;;;;;;;1.59;64.71;99612.06;221332;1274;139144;-56
2022/01/10 15:35:48;;;;;;;16.20;11.20;;;;;;;1.57;64.69;99621.20;221272;1274;141181;-59
2022/01/10 15:40:51;;;;;;;17.10;11.50;;;;;;;1.55;64.71;99632.58;221085;1276;139559;-59
2022/01/10 15:45:54;;;;;;;15.40;10.60;;;;;;;1.53;64.57;99640.66;221313;1274;139913;-58
2022/01/10 15:51:22;;;;;;;17.60;10.90;;;;;;;1.51;64.52;99646.12;221320;1274;139942;-59
2022/01/10 15:56:25;;;;;;;18.30;10.90;;;;;;;1.55;64.56;99654.27;221165;1275;139837;-59
2022/01/10 16:01:28;;;;;;;18.60;12.90;;;;;;;1.62;64.54;99657.13;221352;1274;139035;-58
2022/01/10 16:06:32;;;;;;;21.20;13.90;;;;;;;1.69;64.46;99665.75;221254;1275;157544;-59
2022/01/10 16:11:37;;;;;;;22.40;14.60;;;;;;;1.74;64.58;99683.35;221291;1274;138866;-60
2022/01/10 16:16:42;;;;;;;20.30;14.90;;;;;;;1.77;64.32;99687.52;221107;1274;139323;-60
2022/01/10 16:21:45;;;;;;;22.60;14.50;;;;;;;1.78;64.14;99695.54;221305;1275;138807;-60
2022/01/10 16:26:48;;;;;;;22.40;14.80;;;;;;;1.77;64.01;99705.34;221367;1274;140738;-60
2022/01/10 16:31:51;;;;;;;22.80;15.20;;;;;;;1.77;64.14;99715.13;221400;1274;139388;-59
2022/01/10 16:36:54;;;;;;;25.80;16.40;;;;;;;1.75;63.97;99722.33;221145;1274;139119;-60
2022/01/10 16:41:58;;;;;;;22.90;15.40;;;;;;;1.74;63.92;99727.42;221169;1275;139567;-60
2022/01/10 16:47:06;;;;;;;20.60;13.60;;;;;;;1.75;64.02;99734.77;221337;1275;139418;-61
2022/01/10 16:52:16;;;;;;;19.30;13.00;;;;;;;1.73;63.82;99749.65;221318;1274;139027;-61
2022/01/10 16:57:19;;;;;;;17.00;11.90;;;;;;;1.70;63.86;99755.30;221238;1275;138947;-60
2022/01/10 17:02:22;;;;;;;19.60;12.10;;;;;;;1.65;63.73;99762.01;221246;1275;138759;-61
2022/01/10 17:07:25;;;;;;;26.00;16.50;;;;;;;1.63;63.79;99766.41;221502;1274;139024;-59
2022/01/10 17:12:28;;;;;;;20.40;13.60;;;;;;;1.64;63.80;99777.23;221286;1275;139238;-61
2022/01/10 17:17:32;;;;;;;20.30;13.20;;;;;;;1.65;63.80;99785.79;221226;1274;139038;-61
2022/01/10 17:22:39;;;;;;;20.30;14.00;;;;;;;1.66;63.69;99798.73;221332;1274;138924;-61
2022/01/10 17:27:43;;;;;;;23.40;13.40;;;;;;;1.66;63.71;99805.54;221334;1275;139257;-61
2022/01/10 17:32:48;;;;;;;19.90;13.00;;;;;;;1.64;63.60;99811.16;221240;1274;139171;-61
2022/01/10 17:37:51;;;;;;;20.40;13.60;;;;;;;1.64;63.64;99820.42;221327;1276;139434;-61
2022/01/10 17:42:55;;;;;;;21.80;13.40;;;;;;;1.63;63.47;99830.93;220909;1276;139760;-60
2022/01/10 17:47:59;;;;;;;22.40;13.70;;;;;;;1.64;63.61;99834.24;221189;1276;138754;-60
2022/01/10 17:53:02;;;;;;;21.90;14.00;;;;;;;1.65;63.45;99841.06;221271;1274;139784;-60
2022/01/10 17:58:05;;;;;;;26.30;14.20;;;;;;;1.64;63.42;99845.98;221285;1274;140281;-59
2022/01/10 18:03:08;;;;;;;29.20;16.10;;;;;;;1.69;63.76;99845.21;221401;1274;139877;-60
2022/01/10 18:08:12;;;;;;;22.20;14.40;;;;;;;1.78;63.54;99852.96;221208;1275;139734;-59
2022/01/10 18:13:15;;;;;;;26.10;16.20;;;;;;;1.85;63.51;99856.02;220763;1274;140135;-58
2022/01/10 18:18:19;;;;;;;26.90;17.10;;;;;;;1.90;63.51;99863.84;221387;1275;139309;-61
2022/01/10 18:23:23;;;;;;;28.70;17.00;;;;;;;1.92;63.35;99874.82;221315;1276;139001;-60
2022/01/10 18:28:26;;;;;;;28.40;18.30;;;;;;;1.91;63.29;99884.81;221191;1275;139099;-59
2022/01/10 18:33:29;;;;;;;27.40;17.50;;;;;;;1.89;63.08;99898.48;221219;1275;139543;-58
2022/01/10 18:38:32;;;;;;;86.90;47.80;;;;;;;1.87;63.29;99899.73;221434;1275;139403;-59
2022/01/10 18:43:36;;;;;;;33.50;19.50;;;;;;;1.92;63.37;99906.66;221399;1276;138593;-58
2022/01/10 18:48:40;;;;;;;28.20;17.60;;;;;;;1.89;63.16;99916.50;221217;1275;139484;-59
2022/01/10 18:53:44;;;;;;;27.20;16.30;;;;;;;1.84;62.99;99928.81;221298;1275;139975;-60
2022/01/10 18:58:47;;;;;;;26.20;16.00;;;;;;;1.81;62.86;99934.61;221455;1276;139029;-60
2022/01/10 19:03:50;;;;;;;27.10;15.30;;;;;;;1.78;62.82;99943.40;221453;1275;139423;-60
2022/01/10 19:08:53;;;;;;;21.20;13.10;;;;;;;1.73;62.68;99948.36;221344;1274;139936;-58
2022/01/10 19:13:57;;;;;;;21.60;13.90;;;;;;;1.68;62.47;99958.73;221388;1275;138869;-60
2022/01/10 19:19:02;;;;;;;22.90;14.00;;;;;;;1.61;62.49;99966.86;221380;1275;139889;-59
2022/01/10 19:24:06;;;;;;;21.70;14.00;;;;;;;1.55;62.54;99976.02;221384;1275;139800;-59
2022/01/10 19:29:09;;;;;;;24.60;14.40;;;;;;;1.51;62.49;99980.96;221234;1275;139559;-60
2022/01/10 19:34:12;;;;;;;22.90;14.70;;;;;;;1.48;62.48;99989.55;221283;1275;139696;-58
2022/01/10 19:39:15;;;;;;;23.80;14.90;;;;;;;1.44;62.42;99992.38;221111;1276;141821;-58
2022/01/10 19:44:18;;;;;;;23.70;13.80;;;;;;;1.40;62.47;100003.09;221449;1275;139876;-59
2022/01/10 19:49:21;;;;;;;24.70;14.30;;;;;;;1.40;62.57;100006.92;221152;1275;140315;-58
2022/01/10 19:54:24;;;;;;;24.00;14.40;;;;;;;1.36;62.28;100008.71;221151;1274;140008;-58
2022/01/10 19:59:28;;;;;;;23.90;14.50;;;;;;;1.35;62.38;100016.94;221397;1276;139185;-58
2022/01/10 20:04:32;;;;;;;19.80;12.70;;;;;;;1.34;62.29;100027.27;221730;1274;139094;-60
2022/01/10 20:09:35;;;;;;;18.90;11.60;;;;;;;1.30;62.06;100032.03;221315;1276;139690;-60
2022/01/10 20:14:38;;;;;;;18.40;10.90;;;;;;;1.28;61.78;100036.94;221347;1275;139862;-60
2022/01/10 20:19:42;;;;;;;17.70;11.40;;;;;;;1.26;61.67;100042.20;221550;1276;139125;-60
2022/01/10 20:24:46;;;;;;;18.80;11.50;;;;;;;1.22;61.48;100039.96;221330;1276;139783;-59
2022/01/10 20:29:49;;;;;;;19.70;12.00;;;;;;;1.18;61.53;100050.83;221308;1275;138978;-60
2022/01/10 20:34:52;;;;;;;20.90;12.00;;;;;;;1.13;61.47;100059.23;221345;1274;140214;-58
2022/01/10 20:39:55;;;;;;;19.70;12.50;;;;;;;1.09;61.48;100068.20;221418;1274;140045;-60
2022/01/10 20:44:59;;;;;;;18.20;12.10;;;;;;;1.05;61.40;100073.98;221479;1276;139097;-60
2022/01/10 20:50:06;;;;;;;19.00;12.40;;;;;;;1.03;61.21;100076.10;221177;1274;139442;-60
2022/01/10 20:55:10;;;;;;;20.50;13.10;;;;;;;1.03;61.35;100079.08;221011;1276;139466;-60
2022/01/10 21:00:13;;;;;;;19.80;12.50;;;;;;;1.03;61.12;100087.64;221199;1276;140031;-60
2022/01/10 21:05:17;;;;;;;141.10;70.60;;;;;;;1.10;61.84;100089.14;221473;1274;139053;-59
2022/01/10 21:10:20;;;;;;;39.30;20.60;;;;;;;1.55;62.43;100095.81;220740;1275;139461;-63
2022/01/10 21:15:23;;;;;;;127.70;75.90;;;;;;;1.54;61.47;100099.65;221271;1275;139276;-60
2022/01/10 21:20:26;;;;;;;23.40;15.30;;;;;;;1.57;61.39;100108.57;221493;1276;138921;-59
2022/01/10 21:25:33;;;;;;;23.50;14.80;;;;;;;1.49;60.92;100115.44;221652;1276;142898;-61
2022/01/10 21:30:36;;;;;;;21.90;13.50;;;;;;;1.43;60.86;100120.03;221353;1275;139792;-58
2022/01/10 21:35:41;;;;;;;21.00;13.70;;;;;;;1.36;60.64;100123.23;221351;1275;139157;-61
2022/01/10 21:40:44;;;;;;;20.60;13.70;;;;;;;1.28;60.54;100126.44;221384;1276;139656;-61
2022/01/10 21:45:47;;;;;;;20.80;13.80;;;;;;;1.20;60.48;100132.95;221252;1276;140009;-59
2022/01/10 21:50:52;;;;;;;21.10;13.40;;;;;;;1.16;60.47;100141.71;221406;1274;138851;-59
2022/01/10 21:55:55;;;;;;;24.50;14.20;;;;;;;1.14;60.43;100148.36;221469;1275;138791;-59
2022/01/10 22:00:58;;;;;;;25.30;14.80;;;;;;;1.14;60.55;100153.96;221530;1275;139621;-57
2022/01/10 22:06:01;;;;;;;26.60;15.10;;;;;;;1.14;60.62;100162.70;221172;1274;139343;-59
2022/01/10 22:11:05;;;;;;;25.50;15.70;;;;;;;1.13;60.49;100165.67;221440;1274;138915;-59
2022/01/10 22:16:08;;;;;;;23.90;15.10;;;;;;;1.12;60.55;100168.14;221501;1274;139499;-59
2022/01/10 22:21:13;;;;;;;27.30;16.40;;;;;;;1.13;60.77;100172.33;221375;1276;138815;-59
2022/01/10 22:26:16;;;;;;;22.50;14.80;;;;;;;1.13;60.63;100177.58;221477;1276;139255;-60
2022/01/10 22:31:19;;;;;;;24.90;15.10;;;;;;;1.13;60.71;100188.74;221184;1275;139435;-62
2022/01/10 22:36:22;;;;;;;27.40;15.50;;;;;;;1.13;60.74;100192.23;221294;1275;138879;-60
2022/01/10 22:41:25;;;;;;;22.90;13.80;;;;;;;1.14;60.74;100196.77;221473;1274;139345;-63
2022/01/10 22:46:28;;;;;;;23.40;14.20;;;;;;;1.16;60.72;100200.44;221360;1276;140116;-60
2022/01/10 22:51:32;;;;;;;23.40;13.90;;;;;;;1.17;60.69;100207.95;221381;1274;138878;-61